createdAt,value
2023-04-09T00:01:33.254Z,67.50
2023-04-09T00:03:59.981Z,60.33
2023-04-09T00:06:28.172Z,58.78
2023-04-09T00:08:54.619Z,57.75
2023-04-09T00:11:21.578Z,55.35
2023-04-09T00:13:48.322Z,57.42
2023-04-09T00:16:14.751Z,50.33
2023-04-09T00:18:41.685Z,54.50
2023-04-09T00:21:08.959Z,59.55
2023-04-09T00:23:36.213Z,65.60
2023-04-09T00:26:02.703Z,64.05
2023-04-09T00:28:29.060Z,60.00
2023-04-09T00:30:55.380Z,56.33
2023-04-09T00:33:21.772Z,57.65
2023-04-09T00:35:48.132Z,56.88
2023-04-09T00:38:14.661Z,53.35
2023-04-09T00:40:41.384Z,56.03
2023-04-09T00:43:07.977Z,55.67
2023-04-09T00:45:35.981Z,57.33
2023-04-09T00:48:02.921Z,59.97
2023-04-09T00:50:29.415Z,64.80
2023-04-09T00:52:56.235Z,70.47
2023-04-09T00:55:23.381Z,69.50
2023-04-09T00:57:49.693Z,80.28
2023-04-09T01:00:16.286Z,79.68
2023-04-09T01:02:43.684Z,72.72
2023-04-09T01:05:12.587Z,77.75
2023-04-09T01:07:54.230Z,72.82
2023-04-09T01:10:42.808Z,66.80
2023-04-09T01:13:16.336Z,69.63
2023-04-09T01:15:56.080Z,64.82
2023-04-09T01:18:29.092Z,62.40
2023-04-09T01:21:19.892Z,63.30
2023-04-09T01:23:59.740Z,59.90
2023-04-09T01:26:46.350Z,58.75
2023-04-09T01:29:15.515Z,55.63
2023-04-09T01:31:43.875Z,59.63
2023-04-09T01:34:11.488Z,56.47
2023-04-09T01:36:40.372Z,63.27
2023-04-09T01:39:07.680Z,55.75
2023-04-09T01:41:35.858Z,56.78
2023-04-09T01:44:03.899Z,52.42
2023-04-09T01:46:31.801Z,50.10
2023-04-09T01:48:59.567Z,54.08
2023-04-09T01:51:27.203Z,52.53
2023-04-09T01:53:53.821Z,52.27
2023-04-09T01:56:21.465Z,52.40
2023-04-09T01:58:47.852Z,49.43
2023-04-09T02:01:32.779Z,55.45
2023-04-09T02:04:10.951Z,52.13
2023-04-09T02:06:40.360Z,53.97
2023-04-09T02:09:09.743Z,50.45
2023-04-09T02:11:42.159Z,48.33
2023-04-09T02:14:10.924Z,54.85
2023-04-09T02:16:38.985Z,54.63
2023-04-09T02:19:05.567Z,56.17
2023-04-09T02:21:32.146Z,53.92
2023-04-09T02:23:58.876Z,49.92
2023-04-09T02:26:25.426Z,54.40
2023-04-09T02:28:52.077Z,53.47
2023-04-09T02:31:18.909Z,51.70
2023-04-09T02:33:45.601Z,53.22
2023-04-09T02:36:13.224Z,58.47
2023-04-09T02:38:43.180Z,55.17
2023-04-09T02:41:09.670Z,57.13
2023-04-09T02:43:36.151Z,52.88
2023-04-09T02:46:03.933Z,53.42
2023-04-09T02:48:30.474Z,58.90
2023-04-09T02:50:56.959Z,50.92
2023-04-09T02:53:23.400Z,54.75
2023-04-09T02:55:49.972Z,57.63
2023-04-09T02:58:16.398Z,55.53
2023-04-09T03:00:42.949Z,53.97
2023-04-09T03:03:09.462Z,51.70
2023-04-09T03:05:36.275Z,51.40
2023-04-09T03:08:02.700Z,55.22
2023-04-09T03:10:29.047Z,52.75
2023-04-09T03:12:55.712Z,52.13
2023-04-09T03:15:22.059Z,53.08
2023-04-09T03:17:48.677Z,55.90
2023-04-09T03:20:15.138Z,53.72
2023-04-09T03:22:41.511Z,54.95
2023-04-09T03:25:08.315Z,51.28
2023-04-09T03:27:34.667Z,47.03
2023-04-09T03:30:01.121Z,52.90
2023-04-09T03:32:27.702Z,55.53
2023-04-09T03:34:54.367Z,52.95
2023-04-09T03:37:20.950Z,54.05
2023-04-09T03:39:47.522Z,52.30
2023-04-09T03:42:13.897Z,57.17
2023-04-09T03:44:40.222Z,60.65
2023-04-09T03:47:07.403Z,52.78
2023-04-09T03:49:36.036Z,56.03
2023-04-09T03:52:02.586Z,61.25
2023-04-09T03:54:29.994Z,55.60
2023-04-09T03:56:56.479Z,50.33
2023-04-09T03:59:23.712Z,54.33
2023-04-09T04:01:50.378Z,55.85
2023-04-09T04:04:16.904Z,52.45
2023-04-09T04:06:43.575Z,55.15
2023-04-09T04:09:10.030Z,54.90
2023-04-09T04:11:36.509Z,60.33
2023-04-09T04:14:02.809Z,55.42
2023-04-09T04:16:29.326Z,53.58
2023-04-09T04:18:55.908Z,60.33
2023-04-09T04:21:23.537Z,58.85
2023-04-09T04:23:50.106Z,52.33
2023-04-09T04:26:16.421Z,62.13
2023-04-09T04:28:42.798Z,59.10
2023-04-09T04:31:11.081Z,52.45
2023-04-09T04:33:39.064Z,58.92
2023-04-09T04:36:08.979Z,54.55
2023-04-09T04:38:36.203Z,52.03
2023-04-09T04:41:03.214Z,51.85
2023-04-09T04:43:29.559Z,55.25
2023-04-09T04:45:56.448Z,54.50
2023-04-09T04:48:23.106Z,52.83
2023-04-09T04:50:57.737Z,50.05
2023-04-09T04:53:24.157Z,54.40
2023-04-09T04:55:50.666Z,53.58
2023-04-09T04:58:17.464Z,53.15
2023-04-09T05:00:44.180Z,54.85
2023-04-09T05:03:10.803Z,59.80
2023-04-09T05:05:39.258Z,51.55
2023-04-09T05:08:05.839Z,52.53
2023-04-09T05:10:32.187Z,50.70
2023-04-09T05:12:58.743Z,56.08
2023-04-09T05:15:25.417Z,51.05
2023-04-09T05:17:51.829Z,46.72
2023-04-09T05:20:18.529Z,52.78
2023-04-09T05:22:45.093Z,52.13
2023-04-09T05:25:11.710Z,53.15
2023-04-09T05:27:40.540Z,52.17
2023-04-09T05:30:07.870Z,55.25
2023-04-09T05:32:34.250Z,52.72
2023-04-09T05:35:00.880Z,61.97
2023-04-09T05:37:27.190Z,60.90
2023-04-09T05:39:53.810Z,71.28
2023-04-09T05:42:20.270Z,79.57
2023-04-09T05:44:46.605Z,73.15
2023-04-09T05:47:12.997Z,68.03
2023-04-09T05:49:39.297Z,68.20
2023-04-09T05:52:05.694Z,74.63
2023-04-09T05:54:32.302Z,70.65
2023-04-09T05:56:58.677Z,63.58
2023-04-09T05:59:25.046Z,65.53
2023-04-09T06:01:51.603Z,59.05
2023-04-09T06:04:18.105Z,59.85
2023-04-09T06:06:44.848Z,58.10
2023-04-09T06:09:11.337Z,54.15
2023-04-09T06:11:38.542Z,54.88
2023-04-09T06:14:05.115Z,55.05
2023-04-09T06:16:33.229Z,50.88
2023-04-09T06:18:59.777Z,53.72
2023-04-09T06:21:26.846Z,53.42
2023-04-09T06:23:53.886Z,49.03
2023-04-09T06:26:21.204Z,50.63
2023-04-09T06:28:47.542Z,49.30
2023-04-09T06:31:13.960Z,50.72
2023-04-09T06:33:40.381Z,46.88
2023-04-09T06:36:07.239Z,43.72
2023-04-09T06:38:33.727Z,45.85
2023-04-09T06:41:00.483Z,40.47
2023-04-09T06:43:27.076Z,45.50
2023-04-09T06:45:53.701Z,44.70
2023-04-09T06:48:20.255Z,47.90
2023-04-09T06:50:46.644Z,46.30
2023-04-09T06:53:14.837Z,42.65
2023-04-09T06:55:41.211Z,46.63
2023-04-09T06:58:07.924Z,48.92
2023-04-09T07:00:34.369Z,52.38
2023-04-09T07:03:01.271Z,51.03
2023-04-09T07:05:28.087Z,51.35
2023-04-09T07:07:54.668Z,46.50
2023-04-09T07:10:21.151Z,47.72
2023-04-09T07:12:47.637Z,47.40
2023-04-09T07:15:14.048Z,47.67
2023-04-09T07:17:41.152Z,46.38
2023-04-09T07:20:07.889Z,42.92
2023-04-09T07:22:34.185Z,42.65
2023-04-09T07:25:01.152Z,40.95
2023-04-09T07:27:28.704Z,39.10
2023-04-09T07:30:02.475Z,36.75
2023-04-09T07:32:29.520Z,40.45
2023-04-09T07:34:57.203Z,36.95
2023-04-09T07:37:23.635Z,43.53
2023-04-09T07:39:51.335Z,41.72
2023-04-09T07:42:17.996Z,40.20
2023-04-09T07:44:47.935Z,37.88
2023-04-09T07:47:14.599Z,35.90
2023-04-09T07:49:43.208Z,34.33
2023-04-09T07:54:36.262Z,37.30
2023-04-09T07:57:07.592Z,35.88
2023-04-09T07:59:36.230Z,39.95
2023-04-09T08:02:03.518Z,39.08
2023-04-09T08:04:30.250Z,33.63
2023-04-09T08:07:02.263Z,34.78
2023-04-09T08:09:29.809Z,33.85
2023-04-09T08:12:06.112Z,38.63
2023-04-09T08:14:34.361Z,36.95
2023-04-09T08:17:01.441Z,34.92
2023-04-09T08:19:27.945Z,36.20
2023-04-09T08:21:56.558Z,39.08
2023-04-09T08:26:54.192Z,37.00
2023-04-09T08:29:20.966Z,35.53
2023-04-09T08:31:47.424Z,40.10
2023-04-09T08:34:15.993Z,35.95
2023-04-09T08:39:12.141Z,34.95
2023-04-09T08:41:44.133Z,34.95
2023-04-09T08:44:10.465Z,44.35
2023-04-09T08:46:37.127Z,32.88
2023-04-09T08:49:06.827Z,35.15
2023-04-09T08:51:33.405Z,35.53
2023-04-09T08:54:03.985Z,31.95
2023-04-09T08:56:31.571Z,37.50
2023-04-09T08:58:58.934Z,37.40
2023-04-09T09:01:28.799Z,33.78
2023-04-09T09:04:02.109Z,34.13
2023-04-09T09:06:32.799Z,34.90
2023-04-09T09:09:02.317Z,35.25
2023-04-09T09:11:30.240Z,33.30
2023-04-09T09:14:04.985Z,30.70
2023-04-09T09:16:34.639Z,34.22
2023-04-09T09:19:03.587Z,32.45
2023-04-09T09:21:30.726Z,33.17
2023-04-09T09:23:57.517Z,30.63
2023-04-09T09:26:30.049Z,34.17
2023-04-09T09:29:04.758Z,31.13
2023-04-09T09:31:31.360Z,29.95
2023-04-09T09:33:57.986Z,26.98
2023-04-09T09:36:32.486Z,28.13
2023-04-09T09:39:03.472Z,24.83
2023-04-09T09:41:31.750Z,27.13
2023-04-09T09:43:58.111Z,23.90
2023-04-09T09:46:27.366Z,23.05
2023-04-09T09:48:55.417Z,21.88
2023-04-09T09:51:27.207Z,20.38
2023-04-09T09:53:56.994Z,20.55
2023-04-09T09:56:27.038Z,19.90
2023-04-09T09:59:07.462Z,23.25
2023-04-09T10:01:36.611Z,19.45
2023-04-09T10:04:06.579Z,19.08
2023-04-09T10:06:34.437Z,15.60
2023-04-09T10:09:04.833Z,19.17
2023-04-09T10:11:38.005Z,19.52
2023-04-09T10:14:07.396Z,17.30
2023-04-09T10:16:40.671Z,18.90
2023-04-09T10:19:13.810Z,17.77
2023-04-09T10:21:55.960Z,17.20
2023-04-09T10:24:25.395Z,18.52
2023-04-09T10:26:56.203Z,17.27
2023-04-09T10:29:29.409Z,21.38
2023-04-09T10:32:08.190Z,21.45
2023-04-09T10:34:38.140Z,18.77
2023-04-09T10:37:08.540Z,20.38
2023-04-09T10:39:40.328Z,20.10
2023-04-09T10:42:18.763Z,18.83
2023-04-09T10:47:36.569Z,18.83
2023-04-09T10:50:18.614Z,17.83
2023-04-09T10:52:56.758Z,19.15
2023-04-09T10:55:34.635Z,20.48
2023-04-09T10:58:02.299Z,18.42
2023-04-09T11:00:29.816Z,18.60
2023-04-09T11:03:07.990Z,17.42
2023-04-09T11:05:40.602Z,20.08
2023-04-09T11:08:09.819Z,19.00
2023-04-09T11:10:40.436Z,16.92
2023-04-09T11:13:08.128Z,17.20
2023-04-09T11:15:37.114Z,17.27
2023-04-09T11:18:07.109Z,19.58
2023-04-09T11:20:34.872Z,19.05
2023-04-09T11:23:02.294Z,20.35
2023-04-09T11:25:31.956Z,19.45
2023-04-09T11:27:59.029Z,19.85
2023-04-09T11:30:30.195Z,18.85
2023-04-09T11:33:03.484Z,21.33
2023-04-09T11:35:31.190Z,19.25
2023-04-09T11:37:58.026Z,19.67
2023-04-09T11:40:28.331Z,18.73
2023-04-09T11:42:57.272Z,17.33
2023-04-09T11:45:27.803Z,17.73
2023-04-09T11:47:55.267Z,18.65
2023-04-09T11:50:22.648Z,19.33
2023-04-09T11:52:50.504Z,18.75
2023-04-09T11:55:28.320Z,18.30
2023-04-09T11:58:01.427Z,17.60
2023-04-09T12:00:28.754Z,18.17
2023-04-09T12:03:01.477Z,18.42
2023-04-09T12:05:30.710Z,24.90
2023-04-09T12:08:05.051Z,22.33
2023-04-09T12:10:33.607Z,18.88
2023-04-09T12:13:08.425Z,17.60
2023-04-09T12:15:37.115Z,17.00
2023-04-09T12:18:04.168Z,18.52
2023-04-09T12:20:36.640Z,30.70
2023-04-09T12:23:04.960Z,18.20
2023-04-09T12:25:32.663Z,30.73
2023-04-09T12:27:59.491Z,19.53
2023-04-09T12:30:26.440Z,18.83
2023-04-09T12:32:54.277Z,18.60
2023-04-09T12:35:22.372Z,19.92
2023-04-09T12:37:49.400Z,23.30
2023-04-09T12:40:16.828Z,31.45
2023-04-09T12:42:44.878Z,33.08
2023-04-09T12:45:13.877Z,18.08
2023-04-09T12:47:40.590Z,18.45
2023-04-09T12:50:08.928Z,16.77
2023-04-09T12:52:35.789Z,16.08
2023-04-09T12:55:03.349Z,61.95
2023-04-09T12:57:30.520Z,16.98
2023-04-09T12:59:57.016Z,16.60
2023-04-09T13:02:24.085Z,13.80
2023-04-09T13:04:51.319Z,14.27
2023-04-09T13:07:19.182Z,14.05
2023-04-09T13:09:46.120Z,14.98
2023-04-09T13:12:13.075Z,16.30
2023-04-09T13:14:40.316Z,17.33
2023-04-09T13:17:06.681Z,13.77
2023-04-09T13:19:33.246Z,13.43
2023-04-09T13:21:59.569Z,15.30
2023-04-09T13:24:26.156Z,13.80
2023-04-09T13:26:52.536Z,13.43
2023-04-09T13:29:18.935Z,13.68
2023-04-09T13:31:45.583Z,13.15
2023-04-09T13:34:12.067Z,13.13
2023-04-09T13:36:38.451Z,14.05
2023-04-09T13:39:04.832Z,14.25
2023-04-09T13:41:32.916Z,14.50
2023-04-09T13:43:59.850Z,14.45
2023-04-09T13:46:26.434Z,12.77
2023-04-09T13:48:53.237Z,17.45
2023-04-09T13:51:19.736Z,21.27
2023-04-09T13:53:46.694Z,14.88
2023-04-09T13:56:13.130Z,15.35
2023-04-09T13:58:40.347Z,17.10
2023-04-09T14:01:08.122Z,14.45
2023-04-09T14:03:34.759Z,14.52
2023-04-09T14:06:01.807Z,13.13
2023-04-09T14:08:29.650Z,13.63
2023-04-09T14:10:56.740Z,12.65
2023-04-09T14:13:23.102Z,12.90
2023-04-09T14:15:50.016Z,13.90
2023-04-09T14:18:16.401Z,12.80
2023-04-09T14:20:42.946Z,13.10
2023-04-09T14:23:09.380Z,11.23
2023-04-09T14:25:36.519Z,11.55
2023-04-09T14:28:03.181Z,13.07
2023-04-09T14:30:29.783Z,11.63
2023-04-09T14:32:56.480Z,11.23
2023-04-09T14:35:23.146Z,14.63
2023-04-09T14:37:49.490Z,13.55
2023-04-09T14:40:16.106Z,12.20
2023-04-09T14:42:42.473Z,12.20
2023-04-09T14:45:09.316Z,12.48
2023-04-09T14:47:35.745Z,11.90
2023-04-09T14:50:02.709Z,13.80
2023-04-09T14:52:30.676Z,19.02
2023-04-09T14:54:57.527Z,12.88
2023-04-09T14:57:24.204Z,11.23
2023-04-09T14:59:50.632Z,11.15
2023-04-09T15:02:17.352Z,12.35
2023-04-09T15:04:44.009Z,12.52
2023-04-09T15:07:10.622Z,11.73
2023-04-09T15:09:37.029Z,11.63
2023-04-09T15:12:03.445Z,11.52
2023-04-09T15:14:30.907Z,12.20
2023-04-09T15:16:57.295Z,11.85
2023-04-09T15:19:23.963Z,11.00
2023-04-09T15:21:50.567Z,13.05
2023-04-09T15:24:16.941Z,10.82
2023-04-09T15:26:43.438Z,13.23
2023-04-09T15:29:09.956Z,11.13
2023-04-09T15:31:38.451Z,14.75
2023-04-09T15:34:06.356Z,12.85
2023-04-09T15:36:33.081Z,10.98
2023-04-09T15:38:59.603Z,12.48
2023-04-09T15:41:26.870Z,12.02
2023-04-09T15:43:53.464Z,13.07
2023-04-09T15:46:20.075Z,12.25
2023-04-09T15:48:46.775Z,11.75
2023-04-09T15:51:13.830Z,10.27
2023-04-09T15:53:40.447Z,13.73
2023-04-09T15:56:07.225Z,10.48
2023-04-09T15:58:33.671Z,12.73
2023-04-09T16:01:01.498Z,12.93
2023-04-09T16:03:28.253Z,14.00
2023-04-09T16:05:54.634Z,10.88
2023-04-09T16:08:21.322Z,10.85
2023-04-09T16:10:47.619Z,11.95
2023-04-09T16:13:13.993Z,10.75
2023-04-09T16:15:40.550Z,11.60
2023-04-09T16:18:06.958Z,10.50
2023-04-09T16:20:33.351Z,11.63
2023-04-09T16:22:59.938Z,10.25
2023-04-09T16:25:26.297Z,10.27
2023-04-09T16:27:52.917Z,11.95
2023-04-09T16:30:19.603Z,19.15
2023-04-09T16:32:46.181Z,14.18
2023-04-09T16:35:12.828Z,14.77
2023-04-09T16:37:39.409Z,12.38
2023-04-09T16:40:07.028Z,11.88
2023-04-09T16:42:33.757Z,12.23
2023-04-09T16:45:00.269Z,13.35
2023-04-09T16:47:26.711Z,11.68
2023-04-09T16:49:53.064Z,24.08
2023-04-09T16:52:19.411Z,18.75
2023-04-09T16:54:46.012Z,14.02
2023-04-09T16:57:12.779Z,12.50
2023-04-09T16:59:40.754Z,12.27
2023-04-09T17:02:07.385Z,14.50
2023-04-09T17:04:34.612Z,13.70
2023-04-09T17:07:01.072Z,12.18
2023-04-09T17:09:28.539Z,11.75
2023-04-09T17:11:55.430Z,12.82
2023-04-09T17:14:21.940Z,10.20
2023-04-09T17:16:48.424Z,10.20
2023-04-09T17:19:15.129Z,10.55
2023-04-09T17:21:41.981Z,12.55
2023-04-09T17:24:08.349Z,11.65
2023-04-09T17:26:34.747Z,10.43
2023-04-09T17:29:01.881Z,13.70
2023-04-09T17:31:28.300Z,15.32
2023-04-09T17:33:54.833Z,15.82
2023-04-09T17:36:22.784Z,14.32
2023-04-09T17:38:53.043Z,14.35
2023-04-09T17:41:19.716Z,16.10
2023-04-09T17:43:46.424Z,13.93
2023-04-09T17:46:13.131Z,15.10
2023-04-09T17:48:40.656Z,12.30
2023-04-09T17:51:07.308Z,13.23
2023-04-09T17:53:33.911Z,13.38
2023-04-09T17:56:03.210Z,14.27
2023-04-09T17:58:29.948Z,17.50
2023-04-09T18:00:56.366Z,15.35
2023-04-09T18:03:23.314Z,17.75
2023-04-09T18:05:50.259Z,19.15
2023-04-09T18:08:17.546Z,16.52
2023-04-09T18:10:44.146Z,19.42
2023-04-09T18:13:10.815Z,22.70
2023-04-09T18:15:37.589Z,24.73
2023-04-09T18:18:04.034Z,18.48
2023-04-09T18:20:30.504Z,18.20
2023-04-09T18:22:56.966Z,20.73
2023-04-09T18:25:23.543Z,20.02
2023-04-09T18:27:51.274Z,21.58
2023-04-09T18:30:17.768Z,21.37
2023-04-09T18:32:44.390Z,22.05
2023-04-09T18:35:10.987Z,29.00
2023-04-09T18:37:38.382Z,34.63
2023-04-09T18:40:06.852Z,32.40
2023-04-09T18:42:34.634Z,25.25
2023-04-09T18:45:01.144Z,29.08
2023-04-09T18:47:27.518Z,28.23
2023-04-09T18:49:53.976Z,23.48
2023-04-09T18:52:20.448Z,20.80
2023-04-09T18:54:48.396Z,22.48
2023-04-09T18:57:14.836Z,21.52
2023-04-09T18:59:42.296Z,23.65
2023-04-09T19:02:08.694Z,24.55
2023-04-09T19:04:37.102Z,23.83
2023-04-09T19:09:30.805Z,20.00
2023-04-09T19:11:58.002Z,19.40
2023-04-09T19:14:25.643Z,22.05
2023-04-09T19:16:52.080Z,23.23
2023-04-09T19:19:18.681Z,23.05
2023-04-09T19:21:45.075Z,24.27
2023-04-09T19:24:11.467Z,21.20
2023-04-09T19:26:38.944Z,24.50
2023-04-09T19:29:05.375Z,22.23
2023-04-09T19:31:32.099Z,24.10
2023-04-09T19:33:58.588Z,23.58
2023-04-09T19:36:25.590Z,24.65
2023-04-09T19:38:52.089Z,18.60
2023-04-09T19:41:18.807Z,20.90
2023-04-09T19:43:47.961Z,22.60
2023-04-09T19:46:14.416Z,25.65
2023-04-09T19:48:40.811Z,21.67
2023-04-09T19:51:07.492Z,23.80
2023-04-09T19:53:36.372Z,26.58
2023-04-09T19:56:03.083Z,29.17
2023-04-09T19:58:29.403Z,32.53
2023-04-09T20:00:55.890Z,38.63
2023-04-09T20:03:22.892Z,40.78
2023-04-09T20:05:49.469Z,44.08
2023-04-09T20:08:16.188Z,49.95
2023-04-09T20:10:44.848Z,52.10
2023-04-09T20:13:11.307Z,48.65
2023-04-09T20:15:37.878Z,50.55
2023-04-09T20:18:04.496Z,51.25
2023-04-09T20:20:31.475Z,47.50
2023-04-09T20:22:58.025Z,45.47
2023-04-09T20:25:25.369Z,45.85
2023-04-09T20:27:55.147Z,44.50
2023-04-09T20:30:22.067Z,46.47
2023-04-09T20:32:49.020Z,44.45
2023-04-09T20:35:16.043Z,47.28
2023-04-09T20:37:42.381Z,48.65
2023-04-09T20:40:09.276Z,42.33
2023-04-09T20:42:35.951Z,39.72
2023-04-09T20:45:02.406Z,41.00
2023-04-09T20:47:29.072Z,39.45
2023-04-09T20:49:59.832Z,34.45
2023-04-09T20:52:29.713Z,36.25
2023-04-09T20:54:57.173Z,45.17
2023-04-09T20:57:24.102Z,46.78
2023-04-09T20:59:51.021Z,54.13
2023-04-09T21:02:17.858Z,61.17
2023-04-09T21:04:44.893Z,76.32
2023-04-09T21:07:11.610Z,82.20
2023-04-09T21:09:38.312Z,94.03
2023-04-09T21:12:04.917Z,100.88
2023-04-09T21:14:31.721Z,103.78
2023-04-09T21:16:58.156Z,110.93
2023-04-09T21:19:24.664Z,122.72
2023-04-09T21:21:51.578Z,137.02
2023-04-09T21:24:18.373Z,141.63
2023-04-09T21:26:51.680Z,143.77
2023-04-09T21:29:19.937Z,146.52
2023-04-09T21:31:46.348Z,159.90
2023-04-09T21:34:12.929Z,165.18
2023-04-09T21:36:39.778Z,167.80
2023-04-09T21:39:06.203Z,170.32
2023-04-09T21:41:32.798Z,173.77
2023-04-09T21:44:04.112Z,163.68
2023-04-09T21:46:30.619Z,160.25
2023-04-09T21:48:57.033Z,156.25
2023-04-09T21:51:25.161Z,169.00
2023-04-09T21:53:52.253Z,185.60
2023-04-09T21:56:18.928Z,188.18
2023-04-09T21:58:45.606Z,181.85
2023-04-09T22:01:26.223Z,183.80
2023-04-09T22:03:55.366Z,182.48
2023-04-09T22:06:21.794Z,183.25
2023-04-09T22:08:55.535Z,190.05
2023-04-09T22:11:28.124Z,187.57
2023-04-09T22:13:58.087Z,178.60
2023-04-09T22:16:26.179Z,193.38
2023-04-09T22:18:53.900Z,183.50
2023-04-09T22:21:21.771Z,196.02
2023-04-09T22:23:48.389Z,192.30
2023-04-09T22:26:15.050Z,186.52
2023-04-09T22:28:41.625Z,171.93
2023-04-09T22:31:08.405Z,179.25
2023-04-09T22:33:34.809Z,181.15
2023-04-09T22:36:01.985Z,177.30
2023-04-09T22:38:28.453Z,173.23
2023-04-09T22:40:55.173Z,180.50
2023-04-09T22:43:21.528Z,181.90
2023-04-09T22:45:52.729Z,198.80
2023-04-09T22:48:21.424Z,187.63
2023-04-09T22:50:48.316Z,190.63
2023-04-09T22:53:19.568Z,187.85
2023-04-09T22:55:54.629Z,183.85
2023-04-09T22:58:22.378Z,200.30
2023-04-09T23:00:49.598Z,198.23
2023-04-09T23:03:17.103Z,198.85
2023-04-09T23:05:43.866Z,195.17
2023-04-09T23:08:10.313Z,197.73
2023-04-09T23:10:36.929Z,186.88
2023-04-09T23:13:03.524Z,192.95
2023-04-09T23:15:30.204Z,198.48
2023-04-09T23:17:56.682Z,207.45
2023-04-09T23:20:23.309Z,208.60
2023-04-09T23:22:49.860Z,205.18
2023-04-09T23:25:16.766Z,203.85
2023-04-09T23:27:43.790Z,217.20
2023-04-09T23:30:10.584Z,201.02
2023-04-09T23:32:37.249Z,212.38
2023-04-09T23:35:04.103Z,218.95
2023-04-09T23:37:30.829Z,203.77
2023-04-09T23:39:57.367Z,209.52
2023-04-09T23:42:24.054Z,209.60
2023-04-09T23:44:50.476Z,219.25
2023-04-09T23:47:17.259Z,228.50
2023-04-09T23:49:44.019Z,229.57
2023-04-09T23:52:10.470Z,232.90
2023-04-09T23:54:36.838Z,230.68
2023-04-09T23:57:03.515Z,242.90
2023-04-09T23:59:33.788Z,234.07
